Time;durP1;ratioP1;P1;durP2;ratioP2;P2;SDS_P1;SDS_P2;PMS_P1;PMS_P2;Temp;Humidity;BMP_temperature;BMP_pressure;BME280_temperature;BME280_humidity;BME280_pressure;Samples;Min_cycle;Max_cycle;Signal;HPM_P1;HPM_P2
2023/01/30 00:01:55;;;;;;;27.70;17.10;;;;;;;1.21;100.00;100369.66;105497;1259;97976;-74
2023/01/30 00:04:40;;;;;;;28.20;17.80;;;;;;;1.21;100.00;100365.23;105301;1257;98457;-75
2023/01/30 00:07:26;;;;;;;29.40;18.60;;;;;;;1.22;100.00;100363.77;105270;1256;102882;-74
2023/01/30 00:10:12;;;;;;;26.80;16.60;;;;;;;1.23;100.00;100355.77;105229;1258;99068;-75
2023/01/30 00:12:57;;;;;;;28.70;18.40;;;;;;;1.25;100.00;100350.71;105099;1260;97963;-75
2023/01/30 00:15:43;;;;;;;27.90;18.00;;;;;;;1.25;100.00;100338.36;105289;1260;98052;-73
2023/01/30 00:18:29;;;;;;;29.20;16.90;;;;;;;1.24;100.00;100328.40;105300;1259;97943;-74
2023/01/30 00:21:14;;;;;;;31.20;18.60;;;;;;;1.25;100.00;100321.13;105127;1257;102613;-75
2023/01/30 00:23:59;;;;;;;28.40;17.10;;;;;;;1.26;100.00;100313.43;105267;1257;99353;-74
2023/01/30 00:26:45;;;;;;;35.90;18.10;;;;;;;1.27;100.00;100303.34;105282;1257;98058;-73
2023/01/30 00:29:30;;;;;;;29.90;17.80;;;;;;;1.26;100.00;100299.92;105394;1259;98034;-73
2023/01/30 00:32:16;;;;;;;28.70;18.00;;;;;;;1.25;100.00;100301.06;105174;1259;98493;-74
2023/01/30 00:35:01;;;;;;;30.40;17.80;;;;;;;1.27;100.00;100298.67;105401;1261;102071;-75
2023/01/30 00:37:47;;;;;;;30.60;19.90;;;;;;;1.25;100.00;100285.73;105233;1258;101120;-74
2023/01/30 00:40:33;;;;;;;25.10;15.50;;;;;;;1.25;100.00;100280.20;105259;1261;99231;-74
2023/01/30 00:49:36;;;;;;;31.90;17.50;;;;;;;1.24;100.00;100261.09;105279;1257;102724;-74
2023/01/30 00:52:21;;;;;;;30.90;19.00;;;;;;;1.24;100.00;100254.17;105269;1259;101439;-74
2023/01/30 00:55:07;;;;;;;30.70;17.80;;;;;;;1.25;100.00;100247.92;105139;1262;98027;-74
2023/01/30 00:57:52;;;;;;;29.90;17.80;;;;;;;1.26;100.00;100235.88;105216;1261;98100;-73
2023/01/30 01:00:38;;;;;;;30.60;17.90;;;;;;;1.28;100.00;100223.80;105219;1262;98801;-74
2023/01/30 01:03:25;;;;;;;31.10;17.30;;;;;;;1.28;100.00;100217.61;105204;1257;102611;-73
2023/01/30 01:06:11;;;;;;;26.30;15.80;;;;;;;1.27;100.00;100206.77;105181;1258;99159;-73
2023/01/30 01:08:57;;;;;;;28.30;17.20;;;;;;;1.27;100.00;100198.03;105355;1261;97977;-74
2023/01/30 01:11:42;;;;;;;31.10;16.70;;;;;;;1.26;100.00;100196.20;105055;1261;99414;-73
2023/01/30 01:14:28;;;;;;;26.10;15.90;;;;;;;1.26;100.00;100183.70;105448;1260;99443;-75
2023/01/30 01:17:14;;;;;;;27.70;15.90;;;;;;;1.25;100.00;100174.42;105165;1259;101335;-75
2023/01/30 01:19:59;;;;;;;25.20;15.00;;;;;;;1.25;100.00;100173.59;105229;1261;100535;-75
2023/01/30 01:22:48;;;;;;;26.80;15.10;;;;;;;1.24;100.00;100169.12;105193;1258;97974;-75
2023/01/30 01:25:33;;;;;;;20.80;13.50;;;;;;;1.23;100.00;100160.40;105248;1259;97991;-75
2023/01/30 01:28:21;;;;;;;26.60;14.90;;;;;;;1.22;100.00;100147.31;105312;1259;97957;-72
2023/01/30 01:31:11;;;;;;;23.40;12.90;;;;;;;1.19;100.00;100145.78;105296;1257;101346;-74
2023/01/30 01:33:57;;;;;;;27.20;13.80;;;;;;;1.19;100.00;100141.95;105144;1259;100455;-75
2023/01/30 01:36:48;;;;;;;19.30;12.60;;;;;;;1.21;100.00;100138.66;105049;1257;98762;-74
2023/01/30 01:42:39;;;;;;;22.80;13.20;;;;;;;1.23;100.00;100134.48;105437;1261;98586;-75
2023/01/30 01:45:24;;;;;;;22.10;12.90;;;;;;;1.23;100.00;100116.75;105213;1262;101318;-75
2023/01/30 01:48:37;;;;;;;22.30;13.00;;;;;;;1.25;100.00;100109.58;105224;1257;99894;-75
2023/01/30 01:51:34;;;;;;;20.30;12.20;;;;;;;1.26;100.00;100102.48;105172;1258;98957;-75
2023/01/30 01:54:35;;;;;;;19.60;12.10;;;;;;;1.26;100.00;100109.83;105110;1258;99550;-75
2023/01/30 01:57:33;;;;;;;22.30;12.80;;;;;;;1.26;100.00;100107.39;105176;1261;97962;-75
2023/01/30 02:00:20;;;;;;;17.30;11.30;;;;;;;1.26;100.00;100103.86;105082;1259;102586;-74
2023/01/30 02:03:13;;;;;;;18.10;11.90;;;;;;;1.27;100.00;100092.67;105108;1262;100523;-75
2023/01/30 02:06:01;;;;;;;20.90;11.70;;;;;;;1.26;100.00;100090.29;105119;1261;100076;-73
2023/01/30 02:08:52;;;;;;;20.60;12.30;;;;;;;1.26;100.00;100086.13;105273;1258;97976;-73
2023/01/30 02:11:48;;;;;;;20.10;11.40;;;;;;;1.25;100.00;100080.88;105186;1257;97974;-75
2023/01/30 02:14:36;;;;;;;20.20;12.10;;;;;;;1.25;100.00;100075.27;105337;1257;101368;-74
2023/01/30 02:17:23;;;;;;;19.60;11.60;;;;;;;1.24;100.00;100069.02;105211;1261;100561;-74
2023/01/30 02:20:13;;;;;;;20.70;12.40;;;;;;;1.23;100.00;100064.21;105077;1258;98990;-74
2023/01/30 02:23:10;;;;;;;20.30;12.10;;;;;;;1.21;100.00;100054.02;105067;1258;98016;-74
2023/01/30 02:26:24;;;;;;;17.50;11.30;;;;;;;1.19;100.00;100050.84;105220;1261;98215;-74
2023/01/30 02:29:18;;;;;;;16.90;10.50;;;;;;;1.18;100.00;100049.69;105297;1257;101330;-74
2023/01/30 02:32:21;;;;;;;18.10;11.10;;;;;;;1.18;100.00;100047.96;105153;1259;100664;-74
2023/01/30 02:35:18;;;;;;;16.70;10.10;;;;;;;1.17;99.93;100043.66;105149;1257;98008;-73
2023/01/30 02:38:49;;;;;;;18.80;11.00;;;;;;;1.15;99.76;100032.39;105092;1261;99223;-74
2023/01/30 02:41:57;;;;;;;18.80;11.30;;;;;;;1.13;99.67;100026.79;105202;1259;98516;-74
2023/01/30 02:45:11;;;;;;;19.30;11.00;;;;;;;1.11;99.42;100016.48;105208;1261;102525;-74
2023/01/30 02:48:06;;;;;;;21.60;12.30;;;;;;;1.10;99.49;100017.41;105517;1257;99659;-75
2023/01/30 02:51:00;;;;;;;21.70;11.50;;;;;;;1.12;99.52;100010.04;105358;1257;98403;-74
2023/01/30 02:53:48;;;;;;;19.20;12.30;;;;;;;1.11;99.33;100002.71;105220;1257;98049;-74
2023/01/30 02:57:00;;;;;;;18.30;11.10;;;;;;;1.11;99.17;99995.30;105229;1257;97967;-73
2023/01/30 02:59:49;;;;;;;20.40;12.10;;;;;;;1.10;98.94;99990.84;105157;1259;103502;-74
2023/01/30 03:02:40;;;;;;;19.00;12.30;;;;;;;1.09;98.90;99980.94;105214;1259;99787;-73
2023/01/30 03:05:39;;;;;;;18.70;11.50;;;;;;;1.08;98.81;99973.80;105109;1261;97974;-74
2023/01/30 03:08:55;;;;;;;18.90;11.50;;;;;;;1.07;98.76;99967.09;105188;1264;98652;-74
2023/01/30 03:12:07;;;;;;;22.80;11.10;;;;;;;1.07;98.68;99960.95;105205;1259;98484;-73
2023/01/30 03:15:02;;;;;;;17.00;10.60;;;;;;;1.07;98.67;99947.41;105286;1257;102609;-74
2023/01/30 03:17:49;;;;;;;21.10;11.70;;;;;;;1.06;98.56;99933.25;105167;1259;99927;-74
2023/01/30 03:20:38;;;;;;;24.20;13.30;;;;;;;1.04;98.40;99920.01;105393;1259;98924;-72
2023/01/30 03:23:24;;;;;;;18.50;11.20;;;;;;;1.05;98.49;99909.77;105137;1261;98024;-73
2023/01/30 03:26:15;;;;;;;24.20;13.00;;;;;;;1.03;98.24;99901.46;105241;1257;97931;-74
2023/01/30 03:29:01;;;;;;;22.20;12.80;;;;;;;1.02;98.08;99904.60;105166;1262;103135;-74
2023/01/30 03:31:46;;;;;;;23.80;12.80;;;;;;;1.00;97.96;99902.70;105153;1257;99858;-73
2023/01/30 03:34:32;;;;;;;21.60;12.80;;;;;;;0.99;97.90;99895.34;105249;1261;100013;-73
2023/01/30 03:37:17;;;;;;;22.20;12.90;;;;;;;0.99;97.76;99892.21;105391;1257;98080;-73
2023/01/30 03:40:04;;;;;;;25.60;12.80;;;;;;;0.99;97.66;99883.04;105248;1261;98496;-73
2023/01/30 03:42:50;;;;;;;22.30;13.70;;;;;;;0.98;97.49;99878.58;105235;1263;102639;-75
2023/01/30 03:45:35;;;;;;;24.80;13.60;;;;;;;0.97;97.44;99875.84;105242;1256;99653;-73
2023/01/30 03:48:21;;;;;;;23.20;13.90;;;;;;;0.95;97.55;99861.66;105220;1261;99564;-73
2023/01/30 03:51:07;;;;;;;21.20;12.80;;;;;;;0.94;97.52;99854.04;104994;1258;97986;-73
2023/01/30 03:53:52;;;;;;;22.00;13.30;;;;;;;0.92;97.44;99853.09;105420;1260;97928;-76
2023/01/30 03:56:37;;;;;;;22.70;12.50;;;;;;;0.93;97.70;99846.91;105255;1259;102586;-74
2023/01/30 03:59:23;;;;;;;23.60;13.40;;;;;;;0.91;97.55;99840.75;105229;1259;100689;-73
2023/01/30 04:02:14;;;;;;;22.80;14.20;;;;;;;0.88;97.48;99830.66;105115;1261;98065;-74
2023/01/30 04:05:00;;;;;;;23.70;14.20;;;;;;;0.87;97.53;99815.31;105210;1257;98160;-74
2023/01/30 04:07:46;;;;;;;25.30;14.90;;;;;;;0.86;97.57;99812.46;105233;1260;97934;-72
2023/01/30 04:10:31;;;;;;;25.90;14.60;;;;;;;0.85;97.56;99806.92;105269;1261;101330;-74
2023/01/30 04:13:17;;;;;;;25.80;13.50;;;;;;;0.83;97.52;99803.04;105178;1256;100273;-73
2023/01/30 04:16:15;;;;;;;27.00;15.20;;;;;;;0.83;97.59;99797.77;105258;1262;98028;-73
2023/01/30 04:19:35;;;;;;;24.70;13.60;;;;;;;0.84;97.55;99790.27;105142;1262;97957;-74
2023/01/30 04:22:20;;;;;;;24.20;13.30;;;;;;;0.85;97.46;99786.69;105098;1259;99784;-74
2023/01/30 04:25:06;;;;;;;23.80;14.00;;;;;;;0.84;97.36;99788.22;105446;1271;102447;-75
2023/01/30 04:27:52;;;;;;;22.10;13.70;;;;;;;0.82;97.39;99778.40;105252;1259;100882;-73
2023/01/30 04:30:40;;;;;;;22.40;13.00;;;;;;;0.79;97.35;99772.30;105115;1261;99238;-73
2023/01/30 04:33:56;;;;;;;23.00;13.60;;;;;;;0.77;97.47;99763.38;105073;1261;97901;-73
2023/01/30 04:36:42;;;;;;;29.80;15.70;;;;;;;0.76;97.73;99748.52;105270;1260;97875;-74
2023/01/30 04:39:28;;;;;;;26.90;15.30;;;;;;;0.75;97.83;99742.63;105293;1261;101334;-74
2023/01/30 04:42:13;;;;;;;26.40;14.30;;;;;;;0.72;97.77;99744.81;105142;1259;111293;-73
2023/01/30 04:45:07;;;;;;;27.50;15.20;;;;;;;0.71;97.71;99740.18;105277;1261;98043;-73
2023/01/30 04:47:53;;;;;;;24.70;13.00;;;;;;;0.70;97.73;99732.95;105293;1257;98062;-73
2023/01/30 04:50:40;;;;;;;27.60;14.00;;;;;;;0.69;97.79;99732.83;105118;1259;98565;-73
2023/01/30 04:53:26;;;;;;;29.10;14.20;;;;;;;0.68;97.82;99724.83;105217;1257;101374;-74
2023/01/30 04:56:11;;;;;;;26.30;15.10;;;;;;;0.67;97.89;99723.39;105222;1257;100424;-75
2023/01/30 04:58:57;;;;;;;26.00;13.60;;;;;;;0.66;97.93;99721.34;105222;1261;99450;-74
2023/01/30 05:01:46;;;;;;;24.40;13.90;;;;;;;0.64;97.78;99719.10;105172;1261;97954;-75
2023/01/30 05:04:32;;;;;;;25.00;13.70;;;;;;;0.62;97.73;99705.59;105165;1257;98541;-75
2023/01/30 05:07:18;;;;;;;24.10;14.50;;;;;;;0.60;97.65;99691.02;105073;1259;102441;-75
2023/01/30 05:10:04;;;;;;;23.90;12.60;;;;;;;0.60;97.86;99686.80;105274;1259;100154;-73
2023/01/30 05:12:49;;;;;;;23.50;12.40;;;;;;;0.60;97.89;99685.36;105246;1257;99149;-74
2023/01/30 05:15:35;;;;;;;22.90;11.80;;;;;;;0.60;97.82;99674.48;105245;1263;99148;-73
2023/01/30 05:18:20;;;;;;;22.40;11.60;;;;;;;0.58;97.66;99656.23;105120;1261;98695;-72
2023/01/30 05:21:11;;;;;;;21.00;12.50;;;;;;;0.57;97.65;99648.41;105165;1257;101348;-73
2023/01/30 05:23:57;;;;;;;;;;;;;;;0.56;97.57;99653.85;105198;1261;101483;-73
2023/01/30 05:26:42;;;;;;;21.90;12.80;;;;;;;0.53;97.71;99665.16;105258;1265;98041;-75
2023/01/30 05:29:28;;;;;;;21.30;12.10;;;;;;;0.54;97.93;99656.33;105115;1255;98059;-75
2023/01/30 05:32:15;;;;;;;19.20;11.20;;;;;;;0.55;97.82;99644.78;105424;1261;99380;-74
2023/01/30 05:35:01;;;;;;;18.80;11.60;;;;;;;0.56;97.77;99635.56;105205;1256;101328;-74
2023/01/30 05:37:49;;;;;;;22.70;13.10;;;;;;;0.57;97.69;99632.68;105183;1258;100318;-74
2023/01/30 05:40:35;;;;;;;21.40;12.30;;;;;;;0.57;97.73;99624.77;105101;1261;100084;-73
2023/01/30 05:43:20;;;;;;;17.40;11.60;;;;;;;0.56;97.60;99620.23;105232;1259;98059;-73
2023/01/30 05:46:08;;;;;;;22.90;12.60;;;;;;;0.56;97.55;99615.34;105115;1258;98003;-73
2023/01/30 05:48:54;;;;;;;20.60;12.70;;;;;;;0.56;97.47;99612.70;105250;1257;102539;-73
2023/01/30 05:51:39;;;;;;;20.90;12.20;;;;;;;0.55;97.36;99605.63;105213;1261;99072;-73
2023/01/30 05:54:25;;;;;;;22.10;13.10;;;;;;;0.54;97.26;99595.67;105200;1259;97989;-73
2023/01/30 05:57:11;;;;;;;20.70;12.00;;;;;;;0.53;97.38;99604.71;105085;1259;97966;-74
2023/01/30 05:59:57;;;;;;;19.10;12.10;;;;;;;0.53;97.28;99606.35;105085;1257;98489;-73
2023/01/30 06:02:42;;;;;;;24.00;12.30;;;;;;;0.51;97.26;99607.02;105203;1261;102627;-73
2023/01/30 06:05:28;;;;;;;24.50;12.60;;;;;;;0.51;97.23;99605.98;105200;1259;100416;-74
2023/01/30 06:08:14;;;;;;;22.70;12.80;;;;;;;0.51;97.17;99604.76;105178;1261;98432;-73
2023/01/30 06:11:08;;;;;;;22.90;12.60;;;;;;;0.51;97.11;99601.59;105245;1259;99087;-71
2023/01/30 06:13:54;;;;;;;23.40;12.50;;;;;;;0.52;97.09;99600.62;105180;1259;98525;-73
2023/01/30 06:16:40;;;;;;;19.10;11.90;;;;;;;0.54;97.14;99600.96;105144;1259;102591;-73
2023/01/30 06:19:25;;;;;;;19.60;12.20;;;;;;;0.55;96.97;99597.86;105178;1257;99408;-73
2023/01/30 06:22:11;;;;;;;21.80;12.90;;;;;;;0.54;96.72;99593.00;105149;1261;98596;-73
2023/01/30 06:24:56;;;;;;;20.60;12.90;;;;;;;0.54;96.64;99579.23;105133;1261;97870;-73
2023/01/30 06:27:44;;;;;;;23.10;13.50;;;;;;;0.52;96.40;99570.91;105182;1260;98432;-74
2023/01/30 06:30:30;;;;;;;22.80;13.00;;;;;;;0.52;96.46;99563.04;105158;1261;103524;-74
2023/01/30 06:33:16;;;;;;;19.20;12.40;;;;;;;0.52;96.27;99563.20;105150;1262;99240;-75
2023/01/30 06:36:02;;;;;;;19.00;12.00;;;;;;;0.52;96.17;99557.21;105105;1259;98845;-74
2023/01/30 06:38:47;;;;;;;22.00;12.90;;;;;;;0.52;96.02;99547.91;105128;1260;97953;-73
2023/01/30 06:41:33;;;;;;;20.50;12.80;;;;;;;0.53;95.92;99538.39;105191;1261;98467;-72
2023/01/30 06:44:19;;;;;;;20.50;12.00;;;;;;;0.54;95.75;99542.70;105111;1259;103003;-73
2023/01/30 06:47:04;;;;;;;22.30;13.90;;;;;;;0.53;95.65;99550.98;105131;1260;100323;-73
2023/01/30 06:49:50;;;;;;;21.40;11.90;;;;;;;0.55;95.64;99557.11;105124;1262;98747;-73
2023/01/30 06:52:40;;;;;;;25.40;13.00;;;;;;;0.56;95.46;99553.55;105074;1259;98014;-74
2023/01/30 06:55:27;;;;;;;22.90;13.60;;;;;;;0.57;95.56;99544.85;105135;1259;97987;-74
2023/01/30 06:58:13;;;;;;;22.70;12.10;;;;;;;0.56;95.84;99534.53;105178;1261;102734;-73
2023/01/30 07:01:00;;;;;;;23.50;13.40;;;;;;;0.52;95.92;99532.84;105005;1262;99842;-74
2023/01/30 07:03:47;;;;;;;22.30;12.60;;;;;;;0.49;96.11;99528.40;105044;1261;97953;-74
2023/01/30 07:06:32;;;;;;;23.10;13.70;;;;;;;0.47;96.15;99524.78;105229;1259;98441;-75
2023/01/30 07:09:18;;;;;;;23.60;13.40;;;;;;;0.42;96.30;99524.34;105135;1259;99638;-72
2023/01/30 07:12:04;;;;;;;25.30;14.20;;;;;;;0.36;96.76;99518.73;105074;1262;102585;-73
2023/01/30 07:14:51;;;;;;;23.10;13.10;;;;;;;0.31;96.99;99518.58;105181;1264;101511;-73
2023/01/30 07:17:36;;;;;;;21.40;13.50;;;;;;;0.27;96.99;99507.36;105304;1260;97953;-72
2023/01/30 07:20:22;;;;;;;23.90;13.80;;;;;;;0.25;97.11;99491.10;105104;1257;97994;-73
2023/01/30 07:23:08;;;;;;;24.10;14.10;;;;;;;0.22;97.24;99485.37;105146;1262;97847;-73
2023/01/30 07:25:54;;;;;;;23.90;14.70;;;;;;;0.20;97.51;99479.63;105180;1261;102616;-72
2023/01/30 07:28:39;;;;;;;27.50;15.20;;;;;;;0.19;97.60;99468.35;105299;1260;99703;-73
2023/01/30 07:31:24;;;;;;;25.70;14.90;;;;;;;0.16;97.71;99465.23;105173;1260;99235;-73
2023/01/30 07:34:10;;;;;;;25.30;14.20;;;;;;;0.14;97.87;99460.43;105121;1259;98028;-73
2023/01/30 07:36:55;;;;;;;28.10;15.40;;;;;;;0.11;98.03;99457.52;105261;1257;98477;-75
2023/01/30 07:39:41;;;;;;;27.10;14.90;;;;;;;0.10;98.25;99456.05;105225;1258;101387;-73
2023/01/30 07:42:27;;;;;;;35.60;20.00;;;;;;;0.08;98.44;99454.70;105213;1257;100149;-74
2023/01/30 07:45:12;;;;;;;31.80;17.50;;;;;;;0.04;98.64;99464.14;105227;1269;97917;-74
2023/01/30 07:47:58;;;;;;;29.70;17.60;;;;;;;0.02;98.93;99462.28;105184;1263;97960;-74
2023/01/30 07:50:44;;;;;;;28.00;15.80;;;;;;;-0.02;99.03;99466.34;105197;1259;97892;-73
2023/01/30 07:53:29;;;;;;;29.20;18.20;;;;;;;-0.04;99.34;99457.95;105247;1258;101464;-75
2023/01/30 07:56:18;;;;;;;30.00;17.70;;;;;;;-0.06;99.54;99460.94;105257;1260;99298;-74
2023/01/30 07:59:04;;;;;;;33.90;18.50;;;;;;;-0.08;99.74;99454.05;105204;1263;100100;-75
2023/01/30 08:01:49;;;;;;;34.30;19.70;;;;;;;-0.08;99.82;99452.14;105166;1262;98014;-74
2023/01/30 08:04:35;;;;;;;34.50;17.70;;;;;;;-0.08;100.00;99450.91;105215;1272;99365;-75
2023/01/30 08:07:21;;;;;;;32.00;18.90;;;;;;;-0.07;100.00;99446.29;105286;1261;101951;-73
2023/01/30 08:10:07;;;;;;;32.40;16.70;;;;;;;-0.07;100.00;99442.80;105311;1260;99268;-73
2023/01/30 08:12:52;;;;;;;38.90;20.80;;;;;;;-0.09;100.00;99435.74;105168;1259;98713;-73
2023/01/30 08:15:38;;;;;;;39.00;22.90;;;;;;;-0.08;100.00;99433.02;105279;1259;97955;-73
2023/01/30 08:18:34;;;;;;;40.10;23.00;;;;;;;-0.09;100.00;99428.04;105439;1259;98503;-84
2023/01/30 08:21:20;;;;;;;30.30;19.50;;;;;;;-0.10;100.00;99419.59;106175;1262;102604;-83
2023/01/30 08:24:06;;;;;;;35.60;20.70;;;;;;;-0.09;100.00;99416.63;106073;1261;100454;-81
2023/01/30 08:26:52;;;;;;;32.40;19.60;;;;;;;-0.07;100.00;99417.86;106110;1263;98886;-81
2023/01/30 08:29:37;;;;;;;33.00;18.60;;;;;;;-0.07;100.00;99417.69;106195;1262;98041;-81
2023/01/30 08:32:23;;;;;;;32.90;18.70;;;;;;;-0.07;100.00;99422.38;105920;1264;97793;-81
2023/01/30 08:35:09;;;;;;;33.90;21.50;;;;;;;-0.06;100.00;99417.24;106258;1260;101246;-81
2023/01/30 08:37:54;;;;;;;39.20;24.60;;;;;;;-0.04;100.00;99411.08;105977;1262;100375;-79
2023/01/30 08:40:41;;;;;;;32.80;20.80;;;;;;;-0.04;100.00;99406.87;105608;1261;99129;-79
2023/01/30 08:43:26;;;;;;;36.30;21.60;;;;;;;-0.06;100.00;99396.48;106463;1263;97922;-78
2023/01/30 08:46:11;;;;;;;34.40;21.80;;;;;;;-0.07;100.00;99394.30;106222;1263;97994;-80
2023/01/30 08:48:56;;;;;;;34.20;20.90;;;;;;;-0.06;100.00;99387.21;106387;1258;102601;-80
2023/01/30 08:51:42;;;;;;;34.30;20.80;;;;;;;-0.04;100.00;99385.95;106306;1258;100916;-82
2023/01/30 08:54:27;;;;;;;34.50;21.30;;;;;;;-0.03;100.00;99378.42;106396;1257;98148;-81
2023/01/30 08:57:14;;;;;;;32.80;20.00;;;;;;;0.00;100.00;99374.34;105507;1258;97873;-75
2023/01/30 08:59:59;;;;;;;31.00;18.20;;;;;;;0.03;100.00;99371.44;105494;1260;97844;-75
2023/01/30 09:02:45;;;;;;;34.90;19.90;;;;;;;0.05;100.00;99363.52;105564;1258;102506;-75
2023/01/30 09:05:30;;;;;;;27.50;16.30;;;;;;;0.06;100.00;99364.98;105392;1262;100369;-75
2023/01/30 09:08:16;;;;;;;30.00;17.90;;;;;;;0.08;100.00;99363.21;105490;1260;98469;-75
2023/01/30 09:11:03;;;;;;;30.60;17.30;;;;;;;0.09;100.00;99362.90;105522;1269;97970;-74
2023/01/30 09:13:49;;;;;;;29.80;18.40;;;;;;;0.10;100.00;99355.12;105532;1260;98488;-75
2023/01/30 09:16:34;;;;;;;30.90;18.00;;;;;;;0.11;100.00;99353.94;105495;1261;102608;-75
2023/01/30 09:19:22;;;;;;;30.80;18.10;;;;;;;0.14;100.00;99353.11;105487;1260;99103;-75
2023/01/30 09:22:08;;;;;;;31.40;20.00;;;;;;;0.17;100.00;99345.66;105508;1260;97977;-75
2023/01/30 09:24:53;;;;;;;28.00;18.30;;;;;;;0.18;100.00;99340.66;105527;1259;97941;-75
2023/01/30 09:27:40;;;;;;;27.90;17.70;;;;;;;0.20;100.00;99333.05;105539;1257;97975;-75
2023/01/30 09:30:25;;;;;;;29.80;19.00;;;;;;;0.23;100.00;99332.59;105533;1263;102277;-75
2023/01/30 09:33:15;;;;;;;30.30;18.50;;;;;;;0.26;100.00;99331.09;105400;1262;99235;-75
2023/01/30 09:36:00;;;;;;;24.90;16.80;;;;;;;0.29;100.00;99326.58;105454;1258;97945;-75
2023/01/30 09:38:46;;;;;;;29.30;18.40;;;;;;;0.32;100.00;99329.17;105484;1263;98889;-75
2023/01/30 09:41:47;;;;;;;33.40;19.30;;;;;;;0.35;100.00;99320.70;105522;1257;98533;-75
2023/01/30 09:45:04;;;;;;;27.70;17.40;;;;;;;0.36;100.00;99302.83;105524;1257;101412;-83
2023/01/30 09:48:14;;;;;;;39.30;23.20;;;;;;;0.36;100.00;99296.98;106138;1257;99167;-83
2023/01/30 09:51:38;;;;;;;31.90;19.60;;;;;;;0.38;100.00;99296.63;106451;1264;98102;-80
2023/01/30 09:54:35;;;;;;;48.90;29.70;;;;;;;0.37;100.00;99290.75;106479;1257;97795;-80
2023/01/30 09:57:24;;;;;;;28.80;16.80;;;;;;;0.40;100.00;99282.80;105549;1256;99786;-77
2023/01/30 10:00:20;;;;;;;29.00;19.10;;;;;;;0.40;100.00;99290.09;105593;1260;111330;-77
2023/01/30 10:03:11;;;;;;;33.20;21.00;;;;;;;0.42;100.00;99280.45;105513;1261;99068;-77
2023/01/30 10:06:05;;;;;;;28.10;17.00;;;;;;;0.43;100.00;99273.08;105339;1264;99520;-76
2023/01/30 10:09:01;;;;;;;33.90;18.80;;;;;;;0.44;100.00;99272.86;105532;1261;97949;-77
2023/01/30 10:12:02;;;;;;;30.40;17.70;;;;;;;0.45;100.00;99270.40;105535;1260;99358;-78
2023/01/30 10:15:06;;;;;;;;;;;;;;;0.47;100.00;99265.05;105625;1257;101416;-81
2023/01/30 10:18:23;;;;;;;34.60;23.50;;;;;;;0.47;100.00;99260.30;105586;1261;99745;-79
2023/01/30 10:21:24;;;;;;;29.10;18.90;;;;;;;0.49;100.00;99249.61;105445;1260;98990;-75
2023/01/30 10:24:46;;;;;;;37.90;23.70;;;;;;;0.54;100.00;99247.00;105764;1260;97976;-81
2023/01/30 10:27:32;;;;;;;32.00;18.80;;;;;;;0.58;100.00;99240.27;106416;1257;97890;-80
2023/01/30 10:30:17;;;;;;;25.90;16.20;;;;;;;0.60;100.00;99237.81;105760;1258;101385;-79
2023/01/30 10:33:49;;;;;;;27.80;16.20;;;;;;;0.62;100.00;99230.02;105659;1261;99102;-73
2023/01/30 10:37:08;;;;;;;26.80;17.70;;;;;;;0.66;100.00;99223.85;105229;1264;99363;-81
2023/01/30 10:40:12;;;;;;;20.20;15.70;;;;;;;0.70;100.00;99218.91;106023;1264;97966;-81
2023/01/30 10:43:23;;;;;;;23.80;16.30;;;;;;;0.71;100.00;99210.16;106565;1257;97884;-80
2023/01/30 10:46:08;;;;;;;21.80;15.20;;;;;;;0.72;100.00;99208.86;106197;1260;102631;-80
2023/01/30 10:48:58;;;;;;;26.00;15.30;;;;;;;0.72;100.00;99213.01;106285;1257;100327;-81
2023/01/30 10:51:55;;;;;;;25.90;15.10;;;;;;;0.73;100.00;99214.45;105593;1263;99330;-82
2023/01/30 10:55:09;;;;;;;24.90;17.20;;;;;;;0.76;100.00;99209.10;105497;1272;97955;-81
2023/01/30 10:58:26;;;;;;;20.90;14.20;;;;;;;0.81;100.00;99207.14;105832;1260;98518;-82
2023/01/30 11:01:22;;;;;;;20.60;14.90;;;;;;;0.86;100.00;99203.80;106598;1257;102304;-77
2023/01/30 11:04:27;;;;;;;21.10;13.10;;;;;;;0.91;100.00;99194.87;105553;1257;99047;-78
2023/01/30 11:07:13;;;;;;;19.00;12.70;;;;;;;0.97;100.00;99188.33;105264;1273;98068;-77
2023/01/30 11:09:59;;;;;;;19.50;12.80;;;;;;;1.00;100.00;99182.52;105448;1258;97982;-78
2023/01/30 11:12:45;;;;;;;25.30;15.00;;;;;;;1.02;100.00;99185.77;105544;1264;97803;-78
2023/01/30 11:15:41;;;;;;;70.10;33.40;;;;;;;1.04;100.00;99177.32;105509;1271;101372;-78
2023/01/30 11:18:27;;;;;;;78.10;34.60;;;;;;;1.07;100.00;99165.94;105733;1260;99088;-78
2023/01/30 11:21:23;;;;;;;71.30;36.00;;;;;;;1.09;100.00;99160.63;105561;1270;98725;-79
2023/01/30 11:24:23;;;;;;;29.20;18.90;;;;;;;1.11;100.00;99156.68;105788;1258;98058;-79
2023/01/30 11:27:23;;;;;;;24.60;15.20;;;;;;;1.12;100.00;99156.04;105603;1261;98045;-77
2023/01/30 11:30:15;;;;;;;21.60;14.50;;;;;;;1.14;100.00;99150.44;105549;1257;101344;-77
2023/01/30 11:33:12;;;;;;;31.60;23.10;;;;;;;1.16;100.00;99140.52;105505;1257;99193;-77
2023/01/30 11:36:00;;;;;;;33.50;25.20;;;;;;;1.18;100.00;99142.56;105495;1260;98988;-75
2023/01/30 11:38:59;;;;;;;28.40;21.70;;;;;;;1.20;100.00;99142.04;105603;1260;97993;-81
2023/01/30 11:41:54;;;;;;;23.00;15.40;;;;;;;1.20;100.00;99144.84;106510;1261;98317;-86
2023/01/30 11:44:41;;;;;;;21.50;14.90;;;;;;;1.21;100.00;99141.75;106723;1257;101422;-79
2023/01/30 11:47:28;;;;;;;24.10;16.80;;;;;;;1.21;100.00;99135.76;106189;1260;100133;-80
2023/01/30 11:50:17;;;;;;;23.30;15.50;;;;;;;1.22;100.00;99131.80;105699;1257;98373;-79
2023/01/30 11:53:06;;;;;;;24.50;15.00;;;;;;;1.24;100.00;99126.73;105904;1258;99266;-81
2023/01/30 11:55:56;;;;;;;22.80;15.40;;;;;;;1.24;100.00;99121.71;105532;1260;97867;-79
2023/01/30 11:58:46;;;;;;;27.80;16.60;;;;;;;1.24;100.00;99115.05;105908;1257;102295;-81
2023/01/30 12:01:35;;;;;;;24.70;17.30;;;;;;;1.25;100.00;99109.15;106526;1257;100751;-73
2023/01/30 12:04:21;;;;;;;20.30;13.50;;;;;;;1.27;100.00;99106.64;105300;1261;99064;-73
2023/01/30 12:07:16;;;;;;;26.80;17.50;;;;;;;1.27;100.00;99107.79;105116;1257;97960;-73
2023/01/30 12:10:30;;;;;;;29.20;19.20;;;;;;;1.29;100.00;99106.91;105615;1257;98410;-83
2023/01/30 12:13:40;;;;;;;29.30;18.10;;;;;;;1.32;100.00;99107.73;105383;1260;101325;-78
2023/01/30 12:16:49;;;;;;;26.40;16.80;;;;;;;1.33;100.00;99112.67;106470;1261;99237;-79
2023/01/30 12:19:54;;;;;;;42.50;27.40;;;;;;;1.34;100.00;99111.65;105485;1264;97992;-73
2023/01/30 12:23:07;;;;;;;32.90;20.80;;;;;;;1.35;100.00;99111.02;105102;1257;99227;-73
2023/01/30 12:26:31;;;;;;;30.50;19.80;;;;;;;1.35;100.00;99109.44;105097;1260;98525;-73
2023/01/30 12:29:34;;;;;;;24.60;17.30;;;;;;;1.35;100.00;99110.36;105188;1260;101346;-73
2023/01/30 12:32:24;;;;;;;24.70;15.50;;;;;;;1.34;100.00;99106.91;105140;1261;100342;-72
2023/01/30 12:35:23;;;;;;;39.10;21.70;;;;;;;1.35;100.00;99095.36;105152;1258;97925;-72
2023/01/30 12:38:24;;;;;;;30.00;16.70;;;;;;;1.37;100.00;99097.43;105293;1260;99244;-73
2023/01/30 12:41:24;;;;;;;33.40;19.60;;;;;;;1.39;100.00;99095.83;106821;1256;98380;-72
2023/01/30 12:44:24;;;;;;;37.50;21.00;;;;;;;1.41;100.00;99092.27;105235;1258;102110;-72
2023/01/30 12:47:38;;;;;;;26.90;18.00;;;;;;;1.42;100.00;99093.89;105146;1257;101412;-73
2023/01/30 12:50:26;;;;;;;26.90;17.50;;;;;;;1.43;100.00;99092.07;105344;1256;98870;-73
2023/01/30 12:53:24;;;;;;;28.10;17.50;;;;;;;1.45;100.00;99087.24;105222;1260;97962;-72
2023/01/30 12:56:33;;;;;;;26.20;16.80;;;;;;;1.46;100.00;99091.31;105183;1257;97919;-72
2023/01/30 12:59:28;;;;;;;25.70;15.90;;;;;;;1.47;100.00;99090.03;105236;1261;102554;-72
2023/01/30 13:02:36;;;;;;;31.00;19.30;;;;;;;1.47;100.00;99093.52;105118;1260;100456;-72
2023/01/30 13:05:30;;;;;;;28.70;17.80;;;;;;;1.47;100.00;99090.68;105149;1257;97983;-73
2023/01/30 13:08:48;;;;;;;25.80;16.50;;;;;;;1.49;100.00;99092.55;105208;1257;99187;-72